sensor_id;sensor_type;location;lat;lon;timestamp;P1;durP1;ratioP1;P2;durP2;ratioP2
10896;SDS011;5501;51.176;6.470;2023-07-13T00:00:43;1.58;;;0.70;;
10896;SDS011;5501;51.176;6.470;2023-07-13T00:05:45;4.40;;;1.17;;
10896;SDS011;5501;51.176;6.470;2023-07-13T00:10:46;3.65;;;1.00;;
10896;SDS011;5501;51.176;6.470;2023-07-13T00:15:48;3.90;;;0.95;;
10896;SDS011;5501;51.176;6.470;2023-07-13T00:20:49;2.10;;;1.02;;
10896;SDS011;5501;51.176;6.470;2023-07-13T00:25:51;5.45;;;1.27;;
10896;SDS011;5501;51.176;6.470;2023-07-13T00:30:53;4.35;;;0.93;;
10896;SDS011;5501;51.176;6.470;2023-07-13T00:35:55;1.27;;;1.00;;
10896;SDS011;5501;51.176;6.470;2023-07-13T00:40:57;3.05;;;0.90;;
10896;SDS011;5501;51.176;6.470;2023-07-13T00:46:09;3.50;;;1.30;;
10896;SDS011;5501;51.176;6.470;2023-07-13T00:51:32;2.55;;;1.17;;
10896;SDS011;5501;51.176;6.470;2023-07-13T00:56:38;5.68;;;1.60;;
10896;SDS011;5501;51.176;6.470;2023-07-13T01:01:41;3.80;;;1.23;;
10896;SDS011;5501;51.176;6.470;2023-07-13T01:06:43;1.80;;;1.13;;
10896;SDS011;5501;51.176;6.470;2023-07-13T01:11:46;3.17;;;1.10;;
10896;SDS011;5501;51.176;6.470;2023-07-13T01:16:48;1.83;;;1.67;;
10896;SDS011;5501;51.176;6.470;2023-07-13T01:21:52;1.88;;;0.80;;
10896;SDS011;5501;51.176;6.470;2023-07-13T01:26:54;1.33;;;0.90;;
10896;SDS011;5501;51.176;6.470;2023-07-13T01:31:56;2.47;;;1.00;;
10896;SDS011;5501;51.176;6.470;2023-07-13T01:36:59;1.90;;;1.10;;
10896;SDS011;5501;51.176;6.470;2023-07-13T01:42:02;1.42;;;0.82;;
10896;SDS011;5501;51.176;6.470;2023-07-13T01:47:03;2.08;;;0.90;;
10896;SDS011;5501;51.176;6.470;2023-07-13T01:52:05;3.92;;;1.20;;
10896;SDS011;5501;51.176;6.470;2023-07-13T01:57:07;2.30;;;0.82;;
10896;SDS011;5501;51.176;6.470;2023-07-13T02:02:09;3.28;;;1.10;;
10896;SDS011;5501;51.176;6.470;2023-07-13T02:07:10;3.72;;;0.93;;
10896;SDS011;5501;51.176;6.470;2023-07-13T02:12:12;1.00;;;0.82;;
10896;SDS011;5501;51.176;6.470;2023-07-13T02:17:14;3.45;;;1.10;;
10896;SDS011;5501;51.176;6.470;2023-07-13T02:22:15;3.97;;;1.20;;
10896;SDS011;5501;51.176;6.470;2023-07-13T02:27:17;3.08;;;1.25;;
10896;SDS011;5501;51.176;6.470;2023-07-13T02:32:19;3.65;;;1.17;;
10896;SDS011;5501;51.176;6.470;2023-07-13T02:37:21;1.15;;;1.02;;
10896;SDS011;5501;51.176;6.470;2023-07-13T02:42:22;5.03;;;1.20;;
10896;SDS011;5501;51.176;6.470;2023-07-13T02:47:24;1.55;;;1.13;;
10896;SDS011;5501;51.176;6.470;2023-07-13T02:52:26;5.63;;;1.23;;
10896;SDS011;5501;51.176;6.470;2023-07-13T02:57:28;3.17;;;1.20;;
10896;SDS011;5501;51.176;6.470;2023-07-13T03:02:30;2.00;;;1.05;;
10896;SDS011;5501;51.176;6.470;2023-07-13T03:07:32;0.85;;;0.85;;
10896;SDS011;5501;51.176;6.470;2023-07-13T03:12:34;0.77;;;0.77;;
10896;SDS011;5501;51.176;6.470;2023-07-13T03:17:39;3.60;;;1.13;;
10896;SDS011;5501;51.176;6.470;2023-07-13T03:22:42;0.85;;;0.85;;
10896;SDS011;5501;51.176;6.470;2023-07-13T03:27:44;4.63;;;1.20;;
10896;SDS011;5501;51.176;6.470;2023-07-13T03:32:46;2.10;;;1.05;;
10896;SDS011;5501;51.176;6.470;2023-07-13T03:37:48;2.65;;;1.20;;
10896;SDS011;5501;51.176;6.470;2023-07-13T03:42:53;2.65;;;1.13;;
10896;SDS011;5501;51.176;6.470;2023-07-13T03:47:56;3.78;;;0.98;;
10896;SDS011;5501;51.176;6.470;2023-07-13T03:52:59;3.97;;;0.93;;
10896;SDS011;5501;51.176;6.470;2023-07-13T04:03:47;2.10;;;1.27;;
10896;SDS011;5501;51.176;6.470;2023-07-13T04:08:51;3.47;;;1.83;;
10896;SDS011;5501;51.176;6.470;2023-07-13T04:13:54;4.05;;;1.30;;
10896;SDS011;5501;51.176;6.470;2023-07-13T04:18:56;4.72;;;1.60;;
10896;SDS011;5501;51.176;6.470;2023-07-13T04:24:02;2.13;;;1.25;;
10896;SDS011;5501;51.176;6.470;2023-07-13T04:29:04;3.50;;;1.60;;
10896;SDS011;5501;51.176;6.470;2023-07-13T04:34:06;5.70;;;1.52;;
10896;SDS011;5501;51.176;6.470;2023-07-13T04:39:08;3.00;;;1.23;;
10896;SDS011;5501;51.176;6.470;2023-07-13T04:44:10;2.05;;;1.33;;
10896;SDS011;5501;51.176;6.470;2023-07-13T04:49:11;1.88;;;1.15;;
10896;SDS011;5501;51.176;6.470;2023-07-13T04:54:13;1.17;;;0.95;;
10896;SDS011;5501;51.176;6.470;2023-07-13T04:59:15;2.90;;;1.20;;
10896;SDS011;5501;51.176;6.470;2023-07-13T05:04:17;2.60;;;1.23;;
10896;SDS011;5501;51.176;6.470;2023-07-13T05:09:18;3.85;;;1.27;;
10896;SDS011;5501;51.176;6.470;2023-07-13T05:14:20;5.20;;;1.60;;
10896;SDS011;5501;51.176;6.470;2023-07-13T05:19:21;4.20;;;1.52;;
10896;SDS011;5501;51.176;6.470;2023-07-13T05:24:24;3.80;;;1.65;;
10896;SDS011;5501;51.176;6.470;2023-07-13T05:29:26;4.88;;;1.52;;
10896;SDS011;5501;51.176;6.470;2023-07-13T05:34:28;3.85;;;1.55;;
10896;SDS011;5501;51.176;6.470;2023-07-13T05:39:30;2.05;;;1.42;;
10896;SDS011;5501;51.176;6.470;2023-07-13T05:44:31;4.30;;;1.73;;
10896;SDS011;5501;51.176;6.470;2023-07-13T05:49:33;3.20;;;1.48;;
10896;SDS011;5501;51.176;6.470;2023-07-13T05:54:35;5.85;;;1.52;;
10896;SDS011;5501;51.176;6.470;2023-07-13T05:59:36;9.70;;;2.17;;
10896;SDS011;5501;51.176;6.470;2023-07-13T06:04:38;14.95;;;2.15;;
10896;SDS011;5501;51.176;6.470;2023-07-13T06:09:39;6.30;;;2.30;;
10896;SDS011;5501;51.176;6.470;2023-07-13T06:14:41;4.13;;;1.77;;
10896;SDS011;5501;51.176;6.470;2023-07-13T06:19:43;7.25;;;1.80;;
10896;SDS011;5501;51.176;6.470;2023-07-13T06:24:45;2.03;;;1.60;;
10896;SDS011;5501;51.176;6.470;2023-07-13T06:29:47;7.07;;;1.50;;
10896;SDS011;5501;51.176;6.470;2023-07-13T06:34:49;8.02;;;2.45;;
10896;SDS011;5501;51.176;6.470;2023-07-13T06:39:55;6.25;;;2.05;;
10896;SDS011;5501;51.176;6.470;2023-07-13T06:44:56;4.70;;;1.77;;
10896;SDS011;5501;51.176;6.470;2023-07-13T06:49:58;3.45;;;1.75;;
10896;SDS011;5501;51.176;6.470;2023-07-13T06:54:59;6.50;;;1.88;;
10896;SDS011;5501;51.176;6.470;2023-07-13T07:00:01;3.38;;;1.65;;
10896;SDS011;5501;51.176;6.470;2023-07-13T07:05:02;10.05;;;2.42;;
10896;SDS011;5501;51.176;6.470;2023-07-13T07:10:04;3.33;;;2.00;;
10896;SDS011;5501;51.176;6.470;2023-07-13T07:15:06;6.15;;;2.10;;
10896;SDS011;5501;51.176;6.470;2023-07-13T07:20:08;5.15;;;2.03;;
10896;SDS011;5501;51.176;6.470;2023-07-13T07:25:11;6.57;;;1.80;;
10896;SDS011;5501;51.176;6.470;2023-07-13T07:30:13;6.13;;;2.13;;
10896;SDS011;5501;51.176;6.470;2023-07-13T07:35:18;5.72;;;1.85;;
10896;SDS011;5501;51.176;6.470;2023-07-13T07:40:19;4.47;;;2.00;;
10896;SDS011;5501;51.176;6.470;2023-07-13T07:45:24;7.38;;;2.08;;
10896;SDS011;5501;51.176;6.470;2023-07-13T07:50:26;8.43;;;2.55;;
10896;SDS011;5501;51.176;6.470;2023-07-13T07:55:28;6.28;;;1.92;;
10896;SDS011;5501;51.176;6.470;2023-07-13T08:00:36;3.45;;;1.60;;
10896;SDS011;5501;51.176;6.470;2023-07-13T08:05:41;6.38;;;2.15;;
10896;SDS011;5501;51.176;6.470;2023-07-13T08:11:02;3.10;;;2.08;;
10896;SDS011;5501;51.176;6.470;2023-07-13T08:16:24;4.85;;;1.38;;
10896;SDS011;5501;51.176;6.470;2023-07-13T08:21:27;8.23;;;1.98;;
10896;SDS011;5501;51.176;6.470;2023-07-13T08:26:29;8.50;;;2.00;;
10896;SDS011;5501;51.176;6.470;2023-07-13T08:31:31;2.78;;;1.90;;
10896;SDS011;5501;51.176;6.470;2023-07-13T08:36:32;3.15;;;2.03;;
10896;SDS011;5501;51.176;6.470;2023-07-13T08:41:34;7.93;;;2.22;;
10896;SDS011;5501;51.176;6.470;2023-07-13T08:46:37;3.25;;;1.80;;
10896;SDS011;5501;51.176;6.470;2023-07-13T08:51:43;9.05;;;2.25;;
10896;SDS011;5501;51.176;6.470;2023-07-13T08:56:48;3.13;;;1.35;;
10896;SDS011;5501;51.176;6.470;2023-07-13T09:18:07;3.88;;;1.63;;
10896;SDS011;5501;51.176;6.470;2023-07-13T09:28:19;5.80;;;1.58;;
10896;SDS011;5501;51.176;6.470;2023-07-13T09:33:25;6.38;;;1.55;;
10896;SDS011;5501;51.176;6.470;2023-07-13T09:38:30;5.15;;;1.40;;
10896;SDS011;5501;51.176;6.470;2023-07-13T09:43:33;7.22;;;1.52;;
10896;SDS011;5501;51.176;6.470;2023-07-13T09:48:35;6.68;;;1.73;;
10896;SDS011;5501;51.176;6.470;2023-07-13T09:53:37;7.15;;;2.00;;
10896;SDS011;5501;51.176;6.470;2023-07-13T09:58:39;5.85;;;1.45;;
10896;SDS011;5501;51.176;6.470;2023-07-13T10:03:51;3.88;;;1.70;;
10896;SDS011;5501;51.176;6.470;2023-07-13T10:08:56;4.43;;;1.23;;
10896;SDS011;5501;51.176;6.470;2023-07-13T10:14:02;3.15;;;1.42;;
10896;SDS011;5501;51.176;6.470;2023-07-13T10:19:12;3.20;;;1.20;;
10896;SDS011;5501;51.176;6.470;2023-07-13T10:24:22;3.17;;;1.35;;
10896;SDS011;5501;51.176;6.470;2023-07-13T10:29:27;2.13;;;1.20;;
10896;SDS011;5501;51.176;6.470;2023-07-13T10:34:30;2.67;;;1.40;;
10896;SDS011;5501;51.176;6.470;2023-07-13T10:39:32;3.47;;;1.60;;
10896;SDS011;5501;51.176;6.470;2023-07-13T10:44:35;2.65;;;1.35;;
10896;SDS011;5501;51.176;6.470;2023-07-13T10:49:37;5.53;;;1.13;;
10896;SDS011;5501;51.176;6.470;2023-07-13T10:54:41;2.88;;;1.05;;
10896;SDS011;5501;51.176;6.470;2023-07-13T10:59:48;3.63;;;1.20;;
10896;SDS011;5501;51.176;6.470;2023-07-13T11:05:29;2.72;;;1.23;;
10896;SDS011;5501;51.176;6.470;2023-07-13T11:10:52;3.80;;;1.23;;
10896;SDS011;5501;51.176;6.470;2023-07-13T11:15:55;5.45;;;1.60;;
10896;SDS011;5501;51.176;6.470;2023-07-13T11:21:12;2.30;;;1.15;;
10896;SDS011;5501;51.176;6.470;2023-07-13T11:27:09;3.05;;;1.20;;
10896;SDS011;5501;51.176;6.470;2023-07-13T11:31:59;4.45;;;1.52;;
10896;SDS011;5501;51.176;6.470;2023-07-13T11:37:03;3.22;;;1.30;;
10896;SDS011;5501;51.176;6.470;2023-07-13T11:42:05;4.93;;;1.30;;
10896;SDS011;5501;51.176;6.470;2023-07-13T11:47:12;1.73;;;1.15;;
10896;SDS011;5501;51.176;6.470;2023-07-13T11:52:22;2.17;;;1.23;;
10896;SDS011;5501;51.176;6.470;2023-07-13T11:57:30;2.80;;;1.20;;
10896;SDS011;5501;51.176;6.470;2023-07-13T12:02:36;2.78;;;1.30;;
10896;SDS011;5501;51.176;6.470;2023-07-13T12:07:40;3.38;;;1.40;;
10896;SDS011;5501;51.176;6.470;2023-07-13T12:12:51;3.88;;;1.30;;
10896;SDS011;5501;51.176;6.470;2023-07-13T12:17:55;4.20;;;1.20;;
10896;SDS011;5501;51.176;6.470;2023-07-13T12:22:57;1.23;;;0.90;;
10896;SDS011;5501;51.176;6.470;2023-07-13T12:27:59;2.60;;;1.13;;
10896;SDS011;5501;51.176;6.470;2023-07-13T12:33:34;1.17;;;0.93;;
10896;SDS011;5501;51.176;6.470;2023-07-13T12:38:38;1.98;;;1.15;;
10896;SDS011;5501;51.176;6.470;2023-07-13T12:43:41;1.33;;;1.02;;
10896;SDS011;5501;51.176;6.470;2023-07-13T12:48:43;6.40;;;1.20;;
10896;SDS011;5501;51.176;6.470;2023-07-13T12:54:05;1.67;;;1.00;;
10896;SDS011;5501;51.176;6.470;2023-07-13T12:59:17;0.95;;;0.75;;
10896;SDS011;5501;51.176;6.470;2023-07-13T13:04:21;2.47;;;1.17;;
10896;SDS011;5501;51.176;6.470;2023-07-13T13:09:24;1.02;;;0.90;;
10896;SDS011;5501;51.176;6.470;2023-07-13T13:14:25;4.85;;;1.10;;
10896;SDS011;5501;51.176;6.470;2023-07-13T13:19:27;1.27;;;0.93;;
10896;SDS011;5501;51.176;6.470;2023-07-13T13:24:30;1.25;;;1.08;;
10896;SDS011;5501;51.176;6.470;2023-07-13T13:29:31;3.67;;;0.85;;
10896;SDS011;5501;51.176;6.470;2023-07-13T13:34:35;4.20;;;1.15;;
10896;SDS011;5501;51.176;6.470;2023-07-13T13:39:36;5.65;;;1.20;;
10896;SDS011;5501;51.176;6.470;2023-07-13T13:44:39;2.30;;;0.90;;
10896;SDS011;5501;51.176;6.470;2023-07-13T13:49:44;1.70;;;1.35;;
10896;SDS011;5501;51.176;6.470;2023-07-13T13:54:46;2.83;;;1.00;;
10896;SDS011;5501;51.176;6.470;2023-07-13T13:59:47;1.40;;;1.10;;
10896;SDS011;5501;51.176;6.470;2023-07-13T14:04:59;1.75;;;1.20;;
10896;SDS011;5501;51.176;6.470;2023-07-13T14:10:16;2.72;;;1.20;;
10896;SDS011;5501;51.176;6.470;2023-07-13T14:15:21;3.08;;;1.02;;
10896;SDS011;5501;51.176;6.470;2023-07-13T14:20:23;2.03;;;1.08;;
10896;SDS011;5501;51.176;6.470;2023-07-13T14:25:26;5.90;;;1.40;;
10896;SDS011;5501;51.176;6.470;2023-07-13T14:30:28;3.33;;;1.30;;
10896;SDS011;5501;51.176;6.470;2023-07-13T14:35:30;4.10;;;1.35;;
10896;SDS011;5501;51.176;6.470;2023-07-13T14:40:31;1.23;;;0.80;;
10896;SDS011;5501;51.176;6.470;2023-07-13T14:45:33;2.63;;;1.42;;
10896;SDS011;5501;51.176;6.470;2023-07-13T14:50:35;1.27;;;1.00;;
10896;SDS011;5501;51.176;6.470;2023-07-13T14:55:39;2.30;;;1.27;;
10896;SDS011;5501;51.176;6.470;2023-07-13T15:00:41;2.45;;;1.20;;
10896;SDS011;5501;51.176;6.470;2023-07-13T15:05:43;3.72;;;1.20;;
10896;SDS011;5501;51.176;6.470;2023-07-13T15:10:45;2.47;;;1.48;;
10896;SDS011;5501;51.176;6.470;2023-07-13T15:15:47;1.48;;;1.17;;
10896;SDS011;5501;51.176;6.470;2023-07-13T15:20:52;6.05;;;1.70;;
10896;SDS011;5501;51.176;6.470;2023-07-13T15:25:57;2.92;;;1.45;;
10896;SDS011;5501;51.176;6.470;2023-07-13T15:30:59;5.25;;;1.42;;
10896;SDS011;5501;51.176;6.470;2023-07-13T15:36:01;3.28;;;1.40;;
10896;SDS011;5501;51.176;6.470;2023-07-13T15:41:23;1.20;;;1.10;;
10896;SDS011;5501;51.176;6.470;2023-07-13T15:46:27;3.83;;;1.33;;
10896;SDS011;5501;51.176;6.470;2023-07-13T15:51:30;5.47;;;1.40;;
10896;SDS011;5501;51.176;6.470;2023-07-13T15:56:36;7.13;;;1.10;;
10896;SDS011;5501;51.176;6.470;2023-07-13T16:01:39;1.30;;;1.05;;
10896;SDS011;5501;51.176;6.470;2023-07-13T16:06:42;2.00;;;1.10;;
10896;SDS011;5501;51.176;6.470;2023-07-13T16:11:44;2.10;;;1.25;;
10896;SDS011;5501;51.176;6.470;2023-07-13T16:16:46;3.13;;;1.10;;
10896;SDS011;5501;51.176;6.470;2023-07-13T16:21:50;1.98;;;0.95;;
10896;SDS011;5501;51.176;6.470;2023-07-13T16:26:52;4.90;;;1.25;;
10896;SDS011;5501;51.176;6.470;2023-07-13T16:32:00;3.95;;;1.17;;
10896;SDS011;5501;51.176;6.470;2023-07-13T16:37:18;1.10;;;1.00;;
10896;SDS011;5501;51.176;6.470;2023-07-13T16:42:24;1.15;;;1.05;;
10896;SDS011;5501;51.176;6.470;2023-07-13T16:47:26;2.42;;;1.20;;
10896;SDS011;5501;51.176;6.470;2023-07-13T16:52:29;2.85;;;1.35;;
10896;SDS011;5501;51.176;6.470;2023-07-13T16:57:31;2.58;;;1.10;;
10896;SDS011;5501;51.176;6.470;2023-07-13T17:02:36;2.05;;;1.10;;
10896;SDS011;5501;51.176;6.470;2023-07-13T17:07:41;3.40;;;1.10;;
10896;SDS011;5501;51.176;6.470;2023-07-13T17:12:44;1.38;;;1.23;;
10896;SDS011;5501;51.176;6.470;2023-07-13T17:17:47;1.15;;;0.90;;
10896;SDS011;5501;51.176;6.470;2023-07-13T17:22:50;0.93;;;0.90;;
10896;SDS011;5501;51.176;6.470;2023-07-13T17:27:53;2.33;;;1.23;;
10896;SDS011;5501;51.176;6.470;2023-07-13T17:32:54;1.42;;;1.00;;
10896;SDS011;5501;51.176;6.470;2023-07-13T17:37:58;3.55;;;1.15;;
10896;SDS011;5501;51.176;6.470;2023-07-13T17:43:01;1.00;;;0.90;;
10896;SDS011;5501;51.176;6.470;2023-07-13T17:48:04;1.92;;;1.23;;
10896;SDS011;5501;51.176;6.470;2023-07-13T17:58:08;2.33;;;1.00;;
10896;SDS011;5501;51.176;6.470;2023-07-13T18:03:14;1.70;;;1.27;;
10896;SDS011;5501;51.176;6.470;2023-07-13T18:13:27;2.22;;;1.17;;
10896;SDS011;5501;51.176;6.470;2023-07-13T18:18:29;2.30;;;1.45;;
10896;SDS011;5501;51.176;6.470;2023-07-13T18:23:35;1.52;;;1.20;;
10896;SDS011;5501;51.176;6.470;2023-07-13T18:28:36;2.78;;;1.40;;
10896;SDS011;5501;51.176;6.470;2023-07-13T18:33:38;1.48;;;1.30;;
10896;SDS011;5501;51.176;6.470;2023-07-13T18:38:44;3.03;;;1.02;;
10896;SDS011;5501;51.176;6.470;2023-07-13T18:43:46;2.60;;;1.25;;
10896;SDS011;5501;51.176;6.470;2023-07-13T18:48:53;1.25;;;1.15;;
10896;SDS011;5501;51.176;6.470;2023-07-13T18:53:55;1.48;;;1.25;;
10896;SDS011;5501;51.176;6.470;2023-07-13T18:58:57;2.63;;;1.30;;
10896;SDS011;5501;51.176;6.470;2023-07-13T19:03:58;5.50;;;1.42;;
10896;SDS011;5501;51.176;6.470;2023-07-13T19:09:04;2.20;;;1.50;;
10896;SDS011;5501;51.176;6.470;2023-07-13T19:14:15;1.70;;;1.17;;
10896;SDS011;5501;51.176;6.470;2023-07-13T19:19:20;2.45;;;1.30;;
10896;SDS011;5501;51.176;6.470;2023-07-13T19:24:22;2.95;;;1.73;;
10896;SDS011;5501;51.176;6.470;2023-07-13T19:29:27;1.48;;;1.33;;
10896;SDS011;5501;51.176;6.470;2023-07-13T19:34:29;1.95;;;1.30;;
10896;SDS011;5501;51.176;6.470;2023-07-13T19:39:33;1.30;;;1.20;;
10896;SDS011;5501;51.176;6.470;2023-07-13T19:44:40;2.00;;;1.10;;
10896;SDS011;5501;51.176;6.470;2023-07-13T19:49:43;3.10;;;1.48;;
10896;SDS011;5501;51.176;6.470;2023-07-13T19:54:46;3.20;;;1.80;;
10896;SDS011;5501;51.176;6.470;2023-07-13T19:59:52;5.95;;;1.95;;
10896;SDS011;5501;51.176;6.470;2023-07-13T20:04:55;3.25;;;1.73;;
10896;SDS011;5501;51.176;6.470;2023-07-13T20:10:27;2.78;;;1.70;;
10896;SDS011;5501;51.176;6.470;2023-07-13T20:15:30;3.90;;;1.80;;
10896;SDS011;5501;51.176;6.470;2023-07-13T20:20:35;2.05;;;1.50;;
10896;SDS011;5501;51.176;6.470;2023-07-13T20:25:39;1.90;;;1.60;;
10896;SDS011;5501;51.176;6.470;2023-07-13T20:30:44;2.40;;;1.73;;
10896;SDS011;5501;51.176;6.470;2023-07-13T20:35:48;2.30;;;1.55;;
10896;SDS011;5501;51.176;6.470;2023-07-13T20:40:50;1.67;;;1.50;;
10896;SDS011;5501;51.176;6.470;2023-07-13T20:45:58;2.65;;;1.73;;
10896;SDS011;5501;51.176;6.470;2023-07-13T20:51:01;2.60;;;1.80;;
10896;SDS011;5501;51.176;6.470;2023-07-13T20:56:12;2.22;;;1.52;;
10896;SDS011;5501;51.176;6.470;2023-07-13T21:01:18;4.00;;;1.83;;
10896;SDS011;5501;51.176;6.470;2023-07-13T21:06:26;1.85;;;1.55;;
10896;SDS011;5501;51.176;6.470;2023-07-13T21:11:30;2.58;;;2.10;;
10896;SDS011;5501;51.176;6.470;2023-07-13T21:16:32;1.92;;;1.63;;
10896;SDS011;5501;51.176;6.470;2023-07-13T21:21:33;3.40;;;2.03;;
10896;SDS011;5501;51.176;6.470;2023-07-13T21:26:35;2.03;;;1.50;;
10896;SDS011;5501;51.176;6.470;2023-07-13T21:31:36;2.63;;;2.28;;
10896;SDS011;5501;51.176;6.470;2023-07-13T21:36:38;3.47;;;1.92;;
10896;SDS011;5501;51.176;6.470;2023-07-13T21:41:40;2.60;;;2.10;;
10896;SDS011;5501;51.176;6.470;2023-07-13T21:46:43;3.00;;;2.13;;
10896;SDS011;5501;51.176;6.470;2023-07-13T21:51:44;3.17;;;1.98;;
10896;SDS011;5501;51.176;6.470;2023-07-13T21:56:47;3.08;;;2.47;;
10896;SDS011;5501;51.176;6.470;2023-07-13T22:01:49;4.07;;;2.58;;
10896;SDS011;5501;51.176;6.470;2023-07-13T22:06:51;3.15;;;2.22;;
10896;SDS011;5501;51.176;6.470;2023-07-13T22:11:53;3.05;;;2.47;;
10896;SDS011;5501;51.176;6.470;2023-07-13T22:16:54;2.42;;;2.20;;
10896;SDS011;5501;51.176;6.470;2023-07-13T22:21:57;2.55;;;2.17;;
10896;SDS011;5501;51.176;6.470;2023-07-13T22:26:58;5.53;;;2.42;;
10896;SDS011;5501;51.176;6.470;2023-07-13T22:32:00;4.20;;;2.47;;
10896;SDS011;5501;51.176;6.470;2023-07-13T22:37:02;5.32;;;2.83;;
10896;SDS011;5501;51.176;6.470;2023-07-13T22:42:04;7.68;;;2.58;;
10896;SDS011;5501;51.176;6.470;2023-07-13T22:47:08;5.47;;;2.38;;
10896;SDS011;5501;51.176;6.470;2023-07-13T22:52:16;6.28;;;2.92;;
10896;SDS011;5501;51.176;6.470;2023-07-13T22:57:18;3.00;;;2.55;;
10896;SDS011;5501;51.176;6.470;2023-07-13T23:02:21;5.07;;;2.83;;
10896;SDS011;5501;51.176;6.470;2023-07-13T23:07:22;4.80;;;3.05;;
10896;SDS011;5501;51.176;6.470;2023-07-13T23:12:28;3.17;;;2.35;;
10896;SDS011;5501;51.176;6.470;2023-07-13T23:17:31;5.43;;;2.53;;
10896;SDS011;5501;51.176;6.470;2023-07-13T23:22:33;3.00;;;2.47;;
10896;SDS011;5501;51.176;6.470;2023-07-13T23:27:34;4.80;;;2.22;;
10896;SDS011;5501;51.176;6.470;2023-07-13T23:32:36;3.63;;;2.55;;
10896;SDS011;5501;51.176;6.470;2023-07-13T23:37:37;6.00;;;2.10;;
10896;SDS011;5501;51.176;6.470;2023-07-13T23:42:40;3.53;;;2.13;;
10896;SDS011;5501;51.176;6.470;2023-07-13T23:47:43;7.20;;;2.67;;
10896;SDS011;5501;51.176;6.470;2023-07-13T23:52:46;6.60;;;2.13;;
10896;SDS011;5501;51.176;6.470;2023-07-13T23:57:48;2.88;;;2.13;;
